Terminal Aerodrome Forecast
Issued by NWS Shreveport, LA

Home | Current Version | Previous Version | Text Only | Print | Product List | Glossary On
Versions: 1 2 3 4 5 6 7 8 9 10 11 12 13 14 15 16 17 18 19 20 21 22
000
FTUS44 KSHV 241726
TAFTXK
TAF
KTXK 241726Z 2418/2518 20012KT P6SM BKN025 OVC040
      TEMPO 2419/2421 BKN045
     FM242100 20012KT P6SM BKN045
     FM250300 22012KT P6SM VCTS OVC030CB
      TEMPO 2504/2508 VRB20G40KT 2SM +TSRA BR OVC008CB
     FM250900 32010KT P6SM VCTS OVC015CB
     FM251200 33010KT P6SM SCT015 SCT250
     FM251500 33010KT P6SM SCT030 SCT250=

USA.gov is the U.S. government's official web portal to all federal, state and local government web resources and services.